sensor_id;sensor_type;location;lat;lon;timestamp;pressure;altitude;pressure_sealevel;temperature;humidity
60355;BME280;46198;51.464;-0.066;2023-12-07T00:00:43;101505.22;;;4.28;100.00
60355;BME280;46198;51.464;-0.066;2023-12-07T00:03:15;101508.59;;;4.30;100.00
60355;BME280;46198;51.464;-0.066;2023-12-07T00:05:45;101504.06;;;4.31;100.00
60355;BME280;46198;51.464;-0.066;2023-12-07T00:08:14;101501.22;;;4.32;100.00
60355;BME280;46198;51.464;-0.066;2023-12-07T00:10:42;101492.47;;;4.30;100.00
60355;BME280;46198;51.464;-0.066;2023-12-07T00:13:13;101490.28;;;4.34;100.00
60355;BME280;46198;51.464;-0.066;2023-12-07T00:15:42;101483.09;;;4.34;100.00
60355;BME280;46198;51.464;-0.066;2023-12-07T00:18:14;101478.38;;;4.36;100.00
60355;BME280;46198;51.464;-0.066;2023-12-07T00:20:43;101471.00;;;4.38;100.00
60355;BME280;46198;51.464;-0.066;2023-12-07T00:23:13;101469.97;;;4.39;100.00
60355;BME280;46198;51.464;-0.066;2023-12-07T00:25:42;101472.53;;;4.41;100.00
60355;BME280;46198;51.464;-0.066;2023-12-07T00:28:13;101467.97;;;4.41;100.00
60355;BME280;46198;51.464;-0.066;2023-12-07T00:30:42;101457.91;;;4.43;100.00
60355;BME280;46198;51.464;-0.066;2023-12-07T00:33:11;101447.84;;;4.46;100.00
60355;BME280;46198;51.464;-0.066;2023-12-07T00:35:44;101447.50;;;4.49;100.00
60355;BME280;46198;51.464;-0.066;2023-12-07T00:38:13;101455.25;;;4.52;100.00
60355;BME280;46198;51.464;-0.066;2023-12-07T00:40:44;101459.59;;;4.53;100.00
60355;BME280;46198;51.464;-0.066;2023-12-07T00:43:13;101457.25;;;4.58;100.00
60355;BME280;46198;51.464;-0.066;2023-12-07T00:45:43;101468.38;;;4.63;100.00
60355;BME280;46198;51.464;-0.066;2023-12-07T00:48:12;101461.47;;;4.69;100.00
60355;BME280;46198;51.464;-0.066;2023-12-07T00:50:43;101461.00;;;4.73;100.00
60355;BME280;46198;51.464;-0.066;2023-12-07T00:53:13;101463.34;;;4.76;100.00
60355;BME280;46198;51.464;-0.066;2023-12-07T00:55:44;101460.31;;;4.79;100.00
60355;BME280;46198;51.464;-0.066;2023-12-07T00:58:13;101445.53;;;4.83;100.00
60355;BME280;46198;51.464;-0.066;2023-12-07T01:00:42;101441.16;;;4.91;100.00
60355;BME280;46198;51.464;-0.066;2023-12-07T01:03:11;101443.84;;;4.91;100.00
60355;BME280;46198;51.464;-0.066;2023-12-07T01:05:40;101443.69;;;4.92;100.00
60355;BME280;46198;51.464;-0.066;2023-12-07T01:08:10;101440.81;;;4.94;100.00
60355;BME280;46198;51.464;-0.066;2023-12-07T01:10:40;101442.66;;;5.01;100.00
60355;BME280;46198;51.464;-0.066;2023-12-07T01:13:09;101439.63;;;5.04;100.00
60355;BME280;46198;51.464;-0.066;2023-12-07T01:15:38;101437.97;;;5.11;100.00
60355;BME280;46198;51.464;-0.066;2023-12-07T01:18:07;101427.69;;;5.15;100.00
60355;BME280;46198;51.464;-0.066;2023-12-07T01:20:36;101419.78;;;5.14;100.00
60355;BME280;46198;51.464;-0.066;2023-12-07T01:23:10;101430.38;;;5.15;100.00
60355;BME280;46198;51.464;-0.066;2023-12-07T01:25:43;101432.22;;;5.23;100.00
60355;BME280;46198;51.464;-0.066;2023-12-07T01:28:12;101430.69;;;5.28;100.00
60355;BME280;46198;51.464;-0.066;2023-12-07T01:30:41;101426.66;;;5.32;100.00
60355;BME280;46198;51.464;-0.066;2023-12-07T01:33:12;101422.25;;;5.40;100.00
60355;BME280;46198;51.464;-0.066;2023-12-07T01:35:42;101422.94;;;5.42;100.00
60355;BME280;46198;51.464;-0.066;2023-12-07T01:38:12;101422.91;;;5.50;100.00
60355;BME280;46198;51.464;-0.066;2023-12-07T01:40:41;101414.50;;;5.45;100.00
60355;BME280;46198;51.464;-0.066;2023-12-07T01:43:12;101421.41;;;5.47;100.00
60355;BME280;46198;51.464;-0.066;2023-12-07T01:45:42;101415.53;;;5.44;100.00
60355;BME280;46198;51.464;-0.066;2023-12-07T01:48:11;101422.75;;;5.51;100.00
60355;BME280;46198;51.464;-0.066;2023-12-07T01:50:42;101421.91;;;5.51;100.00
60355;BME280;46198;51.464;-0.066;2023-12-07T01:53:12;101416.84;;;5.56;100.00
60355;BME280;46198;51.464;-0.066;2023-12-07T01:55:42;101407.75;;;5.57;100.00
60355;BME280;46198;51.464;-0.066;2023-12-07T01:58:11;101402.38;;;5.57;100.00
60355;BME280;46198;51.464;-0.066;2023-12-07T02:00:40;101407.56;;;5.59;100.00
60355;BME280;46198;51.464;-0.066;2023-12-07T02:03:09;101402.34;;;5.65;100.00
60355;BME280;46198;51.464;-0.066;2023-12-07T02:05:42;101387.72;;;5.60;100.00
60355;BME280;46198;51.464;-0.066;2023-12-07T02:08:12;101395.59;;;5.61;100.00
60355;BME280;46198;51.464;-0.066;2023-12-07T02:10:42;101390.91;;;5.63;100.00
60355;BME280;46198;51.464;-0.066;2023-12-07T02:13:11;101376.59;;;5.63;100.00
60355;BME280;46198;51.464;-0.066;2023-12-07T02:15:41;101379.78;;;5.66;100.00
60355;BME280;46198;51.464;-0.066;2023-12-07T02:18:15;101389.88;;;5.64;100.00
60355;BME280;46198;51.464;-0.066;2023-12-07T02:20:54;101390.19;;;5.69;100.00
60355;BME280;46198;51.464;-0.066;2023-12-07T02:23:27;101394.94;;;5.67;100.00
60355;BME280;46198;51.464;-0.066;2023-12-07T02:26:18;101383.81;;;5.70;100.00
60355;BME280;46198;51.464;-0.066;2023-12-07T02:28:50;101386.53;;;5.62;100.00
60355;BME280;46198;51.464;-0.066;2023-12-07T02:31:22;101386.00;;;5.67;100.00
60355;BME280;46198;51.464;-0.066;2023-12-07T02:33:52;101385.31;;;5.73;100.00
60355;BME280;46198;51.464;-0.066;2023-12-07T02:36:24;101380.25;;;5.70;100.00
60355;BME280;46198;51.464;-0.066;2023-12-07T02:38:56;101383.28;;;5.67;100.00
60355;BME280;46198;51.464;-0.066;2023-12-07T02:41:31;101380.09;;;5.71;100.00
60355;BME280;46198;51.464;-0.066;2023-12-07T02:44:03;101377.06;;;5.66;100.00
60355;BME280;46198;51.464;-0.066;2023-12-07T02:46:34;101380.09;;;5.71;100.00
60355;BME280;46198;51.464;-0.066;2023-12-07T02:49:04;101372.00;;;5.71;100.00
60355;BME280;46198;51.464;-0.066;2023-12-07T02:51:34;101376.56;;;5.71;100.00
60355;BME280;46198;51.464;-0.066;2023-12-07T02:54:04;101361.22;;;5.71;100.00
60355;BME280;46198;51.464;-0.066;2023-12-07T02:56:33;101352.13;;;5.72;100.00
60355;BME280;46198;51.464;-0.066;2023-12-07T02:59:06;101347.69;;;5.88;100.00
60355;BME280;46198;51.464;-0.066;2023-12-07T03:01:38;101345.19;;;5.78;100.00
60355;BME280;46198;51.464;-0.066;2023-12-07T03:04:08;101339.66;;;5.71;100.00
60355;BME280;46198;51.464;-0.066;2023-12-07T03:06:38;101338.66;;;5.72;100.00
60355;BME280;46198;51.464;-0.066;2023-12-07T03:09:12;101328.19;;;5.77;100.00
60355;BME280;46198;51.464;-0.066;2023-12-07T03:11:43;101333.75;;;5.76;100.00
60355;BME280;46198;51.464;-0.066;2023-12-07T03:14:39;101332.75;;;5.77;100.00
60355;BME280;46198;51.464;-0.066;2023-12-07T03:17:07;101326.19;;;5.71;100.00
60355;BME280;46198;51.464;-0.066;2023-12-07T03:19:37;101320.78;;;5.80;100.00
60355;BME280;46198;51.464;-0.066;2023-12-07T03:22:08;101320.09;;;5.77;100.00
60355;BME280;46198;51.464;-0.066;2023-12-07T03:24:38;101308.50;;;5.77;100.00
60355;BME280;46198;51.464;-0.066;2023-12-07T03:27:08;101310.31;;;5.85;100.00
60355;BME280;46198;51.464;-0.066;2023-12-07T03:29:37;101310.16;;;5.78;100.00
60355;BME280;46198;51.464;-0.066;2023-12-07T03:32:07;101311.34;;;5.84;100.00
60355;BME280;46198;51.464;-0.066;2023-12-07T03:34:37;101295.81;;;5.86;100.00
60355;BME280;46198;51.464;-0.066;2023-12-07T03:37:08;101299.53;;;5.85;100.00
60355;BME280;46198;51.464;-0.066;2023-12-07T03:39:38;101301.34;;;5.92;100.00
60355;BME280;46198;51.464;-0.066;2023-12-07T03:42:10;101292.94;;;5.87;100.00
60355;BME280;46198;51.464;-0.066;2023-12-07T03:45:00;101284.16;;;5.93;100.00
60355;BME280;46198;51.464;-0.066;2023-12-07T03:47:31;101277.97;;;5.85;100.00
60355;BME280;46198;51.464;-0.066;2023-12-07T03:50:00;101275.94;;;5.87;100.00
60355;BME280;46198;51.464;-0.066;2023-12-07T03:52:29;101270.19;;;5.90;100.00
60355;BME280;46198;51.464;-0.066;2023-12-07T03:54:58;101272.22;;;5.88;100.00
60355;BME280;46198;51.464;-0.066;2023-12-07T03:57:29;101264.13;;;5.88;100.00
60355;BME280;46198;51.464;-0.066;2023-12-07T03:59:58;101268.84;;;5.94;100.00
60355;BME280;46198;51.464;-0.066;2023-12-07T04:02:27;101267.50;;;5.90;100.00
60355;BME280;46198;51.464;-0.066;2023-12-07T04:05:01;101263.47;;;5.86;100.00
60355;BME280;46198;51.464;-0.066;2023-12-07T04:07:30;101272.69;;;5.91;100.00
60355;BME280;46198;51.464;-0.066;2023-12-07T04:09:59;101261.59;;;5.86;100.00
60355;BME280;46198;51.464;-0.066;2023-12-07T04:12:29;101255.88;;;5.89;100.00
60355;BME280;46198;51.464;-0.066;2023-12-07T04:14:58;101258.06;;;5.86;100.00
60355;BME280;46198;51.464;-0.066;2023-12-07T04:17:27;101260.41;;;5.89;100.00
60355;BME280;46198;51.464;-0.066;2023-12-07T04:19:57;101247.13;;;5.87;100.00
60355;BME280;46198;51.464;-0.066;2023-12-07T04:22:28;101245.25;;;5.88;100.00
60355;BME280;46198;51.464;-0.066;2023-12-07T04:24:57;101249.00;;;5.87;100.00
60355;BME280;46198;51.464;-0.066;2023-12-07T04:27:26;101248.00;;;5.80;100.00
60355;BME280;46198;51.464;-0.066;2023-12-07T04:29:55;101246.47;;;5.85;100.00
60355;BME280;46198;51.464;-0.066;2023-12-07T04:32:24;101246.16;;;5.80;100.00
60355;BME280;46198;51.464;-0.066;2023-12-07T04:34:53;101239.22;;;5.86;100.00
60355;BME280;46198;51.464;-0.066;2023-12-07T04:37:22;101232.47;;;5.90;100.00
60355;BME280;46198;51.464;-0.066;2023-12-07T04:39:53;101219.34;;;5.87;100.00
60355;BME280;46198;51.464;-0.066;2023-12-07T04:42:23;101225.38;;;5.89;100.00
60355;BME280;46198;51.464;-0.066;2023-12-07T04:44:53;101223.34;;;5.91;100.00
60355;BME280;46198;51.464;-0.066;2023-12-07T04:47:21;101224.00;;;5.93;100.00
60355;BME280;46198;51.464;-0.066;2023-12-07T04:49:51;101226.41;;;5.88;100.00
60355;BME280;46198;51.464;-0.066;2023-12-07T04:52:20;101214.13;;;5.85;100.00
60355;BME280;46198;51.464;-0.066;2023-12-07T04:54:52;101211.56;;;5.92;100.00
60355;BME280;46198;51.464;-0.066;2023-12-07T04:57:22;101214.41;;;5.98;100.00
60355;BME280;46198;51.464;-0.066;2023-12-07T04:59:51;101194.22;;;5.94;100.00
60355;BME280;46198;51.464;-0.066;2023-12-07T05:02:23;101198.38;;;5.97;100.00
60355;BME280;46198;51.464;-0.066;2023-12-07T05:04:53;101199.41;;;5.96;100.00
60355;BME280;46198;51.464;-0.066;2023-12-07T05:07:23;101199.63;;;5.94;100.00
60355;BME280;46198;51.464;-0.066;2023-12-07T05:09:54;101192.66;;;6.00;100.00
60355;BME280;46198;51.464;-0.066;2023-12-07T05:12:23;101194.03;;;5.96;100.00
60355;BME280;46198;51.464;-0.066;2023-12-07T05:14:52;101173.66;;;5.93;100.00
60355;BME280;46198;51.464;-0.066;2023-12-07T05:17:21;101179.34;;;5.98;100.00
60355;BME280;46198;51.464;-0.066;2023-12-07T05:19:50;101181.22;;;5.98;100.00
60355;BME280;46198;51.464;-0.066;2023-12-07T05:22:19;101172.09;;;5.99;100.00
60355;BME280;46198;51.464;-0.066;2023-12-07T05:24:49;101171.44;;;5.97;100.00
60355;BME280;46198;51.464;-0.066;2023-12-07T05:27:19;101171.94;;;6.01;100.00
60355;BME280;46198;51.464;-0.066;2023-12-07T05:29:52;101176.28;;;6.02;100.00
60355;BME280;46198;51.464;-0.066;2023-12-07T05:32:21;101172.59;;;6.03;100.00
60355;BME280;46198;51.464;-0.066;2023-12-07T05:34:54;101166.34;;;6.02;100.00
60355;BME280;46198;51.464;-0.066;2023-12-07T05:37:24;101173.44;;;6.03;100.00
60355;BME280;46198;51.464;-0.066;2023-12-07T05:39:54;101168.50;;;6.07;100.00
60355;BME280;46198;51.464;-0.066;2023-12-07T05:42:25;101174.34;;;6.10;100.00
60355;BME280;46198;51.464;-0.066;2023-12-07T05:44:54;101171.38;;;6.05;100.00
60355;BME280;46198;51.464;-0.066;2023-12-07T05:47:24;101172.03;;;6.07;100.00
60355;BME280;46198;51.464;-0.066;2023-12-07T05:49:54;101160.25;;;6.08;100.00
60355;BME280;46198;51.464;-0.066;2023-12-07T05:52:28;101154.84;;;6.08;100.00
60355;BME280;46198;51.464;-0.066;2023-12-07T05:55:00;101154.00;;;6.08;100.00
60355;BME280;46198;51.464;-0.066;2023-12-07T05:57:31;101156.50;;;6.09;100.00
60355;BME280;46198;51.464;-0.066;2023-12-07T06:00:01;101153.44;;;6.12;100.00
60355;BME280;46198;51.464;-0.066;2023-12-07T06:02:38;101155.03;;;6.21;100.00
60355;BME280;46198;51.464;-0.066;2023-12-07T06:05:10;101151.50;;;6.06;100.00
60355;BME280;46198;51.464;-0.066;2023-12-07T06:07:50;101153.34;;;6.06;100.00
60355;BME280;46198;51.464;-0.066;2023-12-07T06:10:25;101150.75;;;6.12;100.00
60355;BME280;46198;51.464;-0.066;2023-12-07T06:12:56;101139.00;;;6.05;100.00
60355;BME280;46198;51.464;-0.066;2023-12-07T06:15:28;101134.28;;;6.07;100.00
60355;BME280;46198;51.464;-0.066;2023-12-07T06:17:58;101122.50;;;6.08;100.00
60355;BME280;46198;51.464;-0.066;2023-12-07T06:20:26;101133.91;;;6.10;100.00
60355;BME280;46198;51.464;-0.066;2023-12-07T06:22:55;101110.69;;;6.09;100.00
60355;BME280;46198;51.464;-0.066;2023-12-07T06:25:27;101109.28;;;6.13;100.00
60355;BME280;46198;51.464;-0.066;2023-12-07T06:27:58;101106.59;;;6.13;100.00
60355;BME280;46198;51.464;-0.066;2023-12-07T06:30:28;101093.47;;;6.10;100.00
60355;BME280;46198;51.464;-0.066;2023-12-07T06:32:56;101098.03;;;6.10;100.00
60355;BME280;46198;51.464;-0.066;2023-12-07T06:35:25;101100.06;;;6.08;100.00
60355;BME280;46198;51.464;-0.066;2023-12-07T06:37:55;101100.94;;;6.08;100.00
60355;BME280;46198;51.464;-0.066;2023-12-07T06:40:24;101101.41;;;6.12;100.00
60355;BME280;46198;51.464;-0.066;2023-12-07T06:42:58;101109.66;;;6.10;100.00
60355;BME280;46198;51.464;-0.066;2023-12-07T06:45:27;101114.41;;;6.08;100.00
60355;BME280;46198;51.464;-0.066;2023-12-07T06:47:56;101121.47;;;6.09;100.00
60355;BME280;46198;51.464;-0.066;2023-12-07T06:50:25;101114.69;;;6.13;100.00
60355;BME280;46198;51.464;-0.066;2023-12-07T06:52:59;101117.38;;;6.13;100.00
60355;BME280;46198;51.464;-0.066;2023-12-07T06:55:33;101122.75;;;6.13;100.00
60355;BME280;46198;51.464;-0.066;2023-12-07T06:58:13;101111.72;;;6.08;100.00
60355;BME280;46198;51.464;-0.066;2023-12-07T07:00:42;101105.94;;;6.11;100.00
60355;BME280;46198;51.464;-0.066;2023-12-07T07:03:11;101100.06;;;6.08;100.00
60355;BME280;46198;51.464;-0.066;2023-12-07T07:05:43;101114.69;;;6.13;100.00
60355;BME280;46198;51.464;-0.066;2023-12-07T07:08:18;101111.25;;;6.19;100.00
60355;BME280;46198;51.464;-0.066;2023-12-07T07:10:51;101108.28;;;6.14;100.00
60355;BME280;46198;51.464;-0.066;2023-12-07T07:13:21;101110.97;;;6.14;100.00
60355;BME280;46198;51.464;-0.066;2023-12-07T07:15:50;101108.94;;;6.16;100.00
60355;BME280;46198;51.464;-0.066;2023-12-07T07:18:19;101104.75;;;6.14;100.00
60355;BME280;46198;51.464;-0.066;2023-12-07T07:20:57;101116.38;;;6.14;100.00
60355;BME280;46198;51.464;-0.066;2023-12-07T07:23:27;101094.81;;;6.14;100.00
60355;BME280;46198;51.464;-0.066;2023-12-07T07:25:56;101092.75;;;6.16;100.00
60355;BME280;46198;51.464;-0.066;2023-12-07T07:28:27;101096.47;;;6.15;100.00
60355;BME280;46198;51.464;-0.066;2023-12-07T07:31:01;101101.84;;;6.15;100.00
60355;BME280;46198;51.464;-0.066;2023-12-07T07:37:33;101099.44;;;6.20;100.00
60355;BME280;46198;51.464;-0.066;2023-12-07T07:40:01;101092.28;;;6.13;100.00
60355;BME280;46198;51.464;-0.066;2023-12-07T07:42:33;101104.00;;;6.20;100.00
60355;BME280;46198;51.464;-0.066;2023-12-07T07:45:02;101094.50;;;6.24;100.00
60355;BME280;46198;51.464;-0.066;2023-12-07T07:47:30;101087.91;;;6.27;100.00
60355;BME280;46198;51.464;-0.066;2023-12-07T07:49:59;101072.22;;;6.30;100.00
60355;BME280;46198;51.464;-0.066;2023-12-07T07:52:33;101067.00;;;6.29;100.00
60355;BME280;46198;51.464;-0.066;2023-12-07T07:55:03;101065.13;;;6.29;100.00
60355;BME280;46198;51.464;-0.066;2023-12-07T07:57:35;101061.31;;;6.24;100.00
60355;BME280;46198;51.464;-0.066;2023-12-07T08:00:10;101058.25;;;6.27;100.00
60355;BME280;46198;51.464;-0.066;2023-12-07T08:02:40;101049.31;;;6.26;100.00
60355;BME280;46198;51.464;-0.066;2023-12-07T08:05:08;101042.94;;;6.27;100.00
60355;BME280;46198;51.464;-0.066;2023-12-07T08:07:39;101045.63;;;6.27;100.00
60355;BME280;46198;51.464;-0.066;2023-12-07T08:10:08;101052.69;;;6.28;100.00
60355;BME280;46198;51.464;-0.066;2023-12-07T08:12:36;101039.03;;;6.30;100.00
60355;BME280;46198;51.464;-0.066;2023-12-07T08:15:09;101037.78;;;6.32;100.00
60355;BME280;46198;51.464;-0.066;2023-12-07T08:17:39;101039.03;;;6.30;100.00
60355;BME280;46198;51.464;-0.066;2023-12-07T08:20:08;101042.84;;;6.35;100.00
60355;BME280;46198;51.464;-0.066;2023-12-07T08:22:39;101027.47;;;6.36;100.00
60355;BME280;46198;51.464;-0.066;2023-12-07T08:25:09;101031.00;;;6.36;100.00
60355;BME280;46198;51.464;-0.066;2023-12-07T08:27:38;101024.31;;;6.32;100.00
60355;BME280;46198;51.464;-0.066;2023-12-07T08:30:07;101025.78;;;6.35;100.00
60355;BME280;46198;51.464;-0.066;2023-12-07T08:32:36;101015.66;;;6.37;100.00
60355;BME280;46198;51.464;-0.066;2023-12-07T08:35:06;101009.25;;;6.38;100.00
60355;BME280;46198;51.464;-0.066;2023-12-07T08:37:38;101008.03;;;6.40;100.00
60355;BME280;46198;51.464;-0.066;2023-12-07T08:40:07;100996.41;;;6.40;100.00
60355;BME280;46198;51.464;-0.066;2023-12-07T08:42:38;100996.03;;;6.43;100.00
60355;BME280;46198;51.464;-0.066;2023-12-07T08:45:11;100993.59;;;6.48;100.00
60355;BME280;46198;51.464;-0.066;2023-12-07T08:47:41;100993.53;;;6.41;100.00
60355;BME280;46198;51.464;-0.066;2023-12-07T08:50:09;100990.00;;;6.41;100.00
60355;BME280;46198;51.464;-0.066;2023-12-07T08:52:39;100991.72;;;6.49;100.00
60355;BME280;46198;51.464;-0.066;2023-12-07T08:55:16;100988.59;;;6.45;100.00
60355;BME280;46198;51.464;-0.066;2023-12-07T08:57:45;100975.94;;;6.46;100.00
60355;BME280;46198;51.464;-0.066;2023-12-07T09:00:14;100976.59;;;6.48;100.00
60355;BME280;46198;51.464;-0.066;2023-12-07T09:02:43;100971.63;;;6.51;100.00
60355;BME280;46198;51.464;-0.066;2023-12-07T09:05:15;100959.84;;;6.52;100.00
60355;BME280;46198;51.464;-0.066;2023-12-07T09:07:45;100953.41;;;6.53;100.00
60355;BME280;46198;51.464;-0.066;2023-12-07T09:10:14;100954.72;;;6.57;100.00
60355;BME280;46198;51.464;-0.066;2023-12-07T09:12:43;100948.28;;;6.58;100.00
60355;BME280;46198;51.464;-0.066;2023-12-07T09:15:11;100942.69;;;6.60;100.00
60355;BME280;46198;51.464;-0.066;2023-12-07T09:17:40;100934.22;;;6.63;100.00
60355;BME280;46198;51.464;-0.066;2023-12-07T09:20:09;100933.84;;;6.66;100.00
60355;BME280;46198;51.464;-0.066;2023-12-07T09:22:42;100927.00;;;6.70;100.00
60355;BME280;46198;51.464;-0.066;2023-12-07T09:25:16;100935.56;;;6.74;100.00
60355;BME280;46198;51.464;-0.066;2023-12-07T09:27:44;100922.09;;;6.74;100.00
60355;BME280;46198;51.464;-0.066;2023-12-07T09:30:13;100913.78;;;6.75;100.00
60355;BME280;46198;51.464;-0.066;2023-12-07T09:32:42;100895.09;;;6.74;100.00
60355;BME280;46198;51.464;-0.066;2023-12-07T09:35:12;100903.81;;;6.76;100.00
60355;BME280;46198;51.464;-0.066;2023-12-07T09:37:43;100908.00;;;6.78;100.00
60355;BME280;46198;51.464;-0.066;2023-12-07T09:40:17;100898.50;;;6.82;100.00
60355;BME280;46198;51.464;-0.066;2023-12-07T09:42:48;100892.72;;;6.85;100.00
60355;BME280;46198;51.464;-0.066;2023-12-07T09:45:18;100891.63;;;6.80;100.00
60355;BME280;46198;51.464;-0.066;2023-12-07T09:47:48;100888.97;;;6.86;100.00
60355;BME280;46198;51.464;-0.066;2023-12-07T09:50:18;100891.31;;;6.90;100.00
60355;BME280;46198;51.464;-0.066;2023-12-07T09:52:48;100885.69;;;6.91;100.00
60355;BME280;46198;51.464;-0.066;2023-12-07T09:55:31;100883.91;;;6.98;100.00
60355;BME280;46198;51.464;-0.066;2023-12-07T09:58:01;100875.59;;;7.00;100.00
60355;BME280;46198;51.464;-0.066;2023-12-07T10:00:32;100871.88;;;7.01;100.00
60355;BME280;46198;51.464;-0.066;2023-12-07T10:03:01;100875.19;;;7.03;100.00
60355;BME280;46198;51.464;-0.066;2023-12-07T10:05:29;100882.06;;;7.05;100.00
60355;BME280;46198;51.464;-0.066;2023-12-07T10:07:57;100872.72;;;7.01;100.00
60355;BME280;46198;51.464;-0.066;2023-12-07T10:10:25;100875.00;;;7.04;100.00
60355;BME280;46198;51.464;-0.066;2023-12-07T10:12:56;100881.31;;;7.12;100.00
60355;BME280;46198;51.464;-0.066;2023-12-07T10:15:26;100883.53;;;7.08;100.00
60355;BME280;46198;51.464;-0.066;2023-12-07T10:17:56;100882.06;;;7.05;100.00
60355;BME280;46198;51.464;-0.066;2023-12-07T10:20:26;100875.25;;;7.09;100.00
60355;BME280;46198;51.464;-0.066;2023-12-07T10:23:01;100864.47;;;7.09;100.00
60355;BME280;46198;51.464;-0.066;2023-12-07T10:25:31;100858.03;;;7.10;100.00
60355;BME280;46198;51.464;-0.066;2023-12-07T10:28:01;100860.53;;;7.12;100.00
60355;BME280;46198;51.464;-0.066;2023-12-07T10:30:34;100863.47;;;7.17;100.00
60355;BME280;46198;51.464;-0.066;2023-12-07T10:33:03;100851.22;;;7.15;100.00
60355;BME280;46198;51.464;-0.066;2023-12-07T10:35:31;100849.53;;;7.14;100.00
60355;BME280;46198;51.464;-0.066;2023-12-07T10:38:01;100840.19;;;7.16;100.00
60355;BME280;46198;51.464;-0.066;2023-12-07T10:40:29;100827.09;;;7.13;100.00
60355;BME280;46198;51.464;-0.066;2023-12-07T10:42:58;100815.94;;;7.23;100.00
60355;BME280;46198;51.464;-0.066;2023-12-07T10:45:30;100802.44;;;7.23;100.00
60355;BME280;46198;51.464;-0.066;2023-12-07T10:48:02;100794.75;;;7.20;100.00
60355;BME280;46198;51.464;-0.066;2023-12-07T10:50:34;100800.38;;;7.25;100.00
60355;BME280;46198;51.464;-0.066;2023-12-07T10:53:08;100798.13;;;7.28;100.00
60355;BME280;46198;51.464;-0.066;2023-12-07T10:55:42;100791.66;;;7.29;100.00
60355;BME280;46198;51.464;-0.066;2023-12-07T10:58:14;100783.81;;;7.35;100.00
60355;BME280;46198;51.464;-0.066;2023-12-07T11:00:46;100785.09;;;7.39;100.00
60355;BME280;46198;51.464;-0.066;2023-12-07T11:03:16;100787.56;;;7.40;100.00
60355;BME280;46198;51.464;-0.066;2023-12-07T11:05:46;100778.88;;;7.45;100.00
60355;BME280;46198;51.464;-0.066;2023-12-07T11:08:21;100784.69;;;7.48;100.00
60355;BME280;46198;51.464;-0.066;2023-12-07T11:11:00;100780.53;;;7.46;100.00
60355;BME280;46198;51.464;-0.066;2023-12-07T11:13:33;100763.53;;;7.52;100.00
60355;BME280;46198;51.464;-0.066;2023-12-07T11:16:04;100754.38;;;7.53;100.00
60355;BME280;46198;51.464;-0.066;2023-12-07T11:18:33;100753.56;;;7.52;100.00
60355;BME280;46198;51.464;-0.066;2023-12-07T11:21:01;100756.03;;;7.54;100.00
60355;BME280;46198;51.464;-0.066;2023-12-07T11:23:31;100759.38;;;7.56;100.00
60355;BME280;46198;51.464;-0.066;2023-12-07T11:25:59;100762.69;;;7.51;100.00
60355;BME280;46198;51.464;-0.066;2023-12-07T11:28:38;100749.81;;;7.53;100.00
60355;BME280;46198;51.464;-0.066;2023-12-07T11:31:08;100736.94;;;7.55;100.00
60355;BME280;46198;51.464;-0.066;2023-12-07T11:33:38;100726.78;;;7.58;100.00
60355;BME280;46198;51.464;-0.066;2023-12-07T11:36:08;100730.25;;;7.51;100.00
60355;BME280;46198;51.464;-0.066;2023-12-07T11:38:37;100728.44;;;7.59;100.00
60355;BME280;46198;51.464;-0.066;2023-12-07T11:41:05;100734.66;;;7.52;100.00
60355;BME280;46198;51.464;-0.066;2023-12-07T11:43:41;100732.34;;;7.49;100.00
60355;BME280;46198;51.464;-0.066;2023-12-07T11:46:15;100723.22;;;7.57;100.00
60355;BME280;46198;51.464;-0.066;2023-12-07T11:48:47;100711.56;;;7.57;100.00
60355;BME280;46198;51.464;-0.066;2023-12-07T11:51:17;100701.41;;;7.59;100.00
60355;BME280;46198;51.464;-0.066;2023-12-07T11:53:45;100700.75;;;7.57;100.00
60355;BME280;46198;51.464;-0.066;2023-12-07T11:56:16;100708.28;;;7.54;100.00
60355;BME280;46198;51.464;-0.066;2023-12-07T11:58:47;100699.53;;;7.52;100.00
60355;BME280;46198;51.464;-0.066;2023-12-07T12:01:18;100688.72;;;7.52;100.00
60355;BME280;46198;51.464;-0.066;2023-12-07T12:03:47;100684.78;;;7.55;100.00
60355;BME280;46198;51.464;-0.066;2023-12-07T12:06:15;100684.97;;;7.53;100.00
60355;BME280;46198;51.464;-0.066;2023-12-07T12:08:44;100660.66;;;7.53;100.00
60355;BME280;46198;51.464;-0.066;2023-12-07T12:11:13;100650.06;;;7.52;100.00
60355;BME280;46198;51.464;-0.066;2023-12-07T12:13:45;100657.13;;;7.53;100.00
60355;BME280;46198;51.464;-0.066;2023-12-07T12:16:14;100661.69;;;7.52;100.00
60355;BME280;46198;51.464;-0.066;2023-12-07T12:18:44;100657.94;;;7.53;100.00
60355;BME280;46198;51.464;-0.066;2023-12-07T12:21:37;100648.38;;;7.51;100.00
60355;BME280;46198;51.464;-0.066;2023-12-07T12:24:09;100650.88;;;7.52;100.00
60355;BME280;46198;51.464;-0.066;2023-12-07T12:26:39;100638.41;;;7.51;100.00
60355;BME280;46198;51.464;-0.066;2023-12-07T12:29:08;100639.25;;;7.59;100.00
60355;BME280;46198;51.464;-0.066;2023-12-07T12:31:48;100636.34;;;7.53;100.00
60355;BME280;46198;51.464;-0.066;2023-12-07T12:34:20;100632.38;;;7.56;100.00
60355;BME280;46198;51.464;-0.066;2023-12-07T12:36:49;100624.28;;;7.56;100.00
60355;BME280;46198;51.464;-0.066;2023-12-07T12:39:18;100619.72;;;7.57;100.00
60355;BME280;46198;51.464;-0.066;2023-12-07T12:41:57;100621.81;;;7.54;100.00
60355;BME280;46198;51.464;-0.066;2023-12-07T12:44:27;100624.91;;;7.51;100.00
60355;BME280;46198;51.464;-0.066;2023-12-07T12:47:05;100613.06;;;7.52;100.00
60355;BME280;46198;51.464;-0.066;2023-12-07T12:49:38;100596.63;;;7.47;100.00
60355;BME280;46198;51.464;-0.066;2023-12-07T12:52:09;100598.50;;;7.53;100.00
60355;BME280;46198;51.464;-0.066;2023-12-07T12:54:42;100591.00;;;7.49;100.00
60355;BME280;46198;51.464;-0.066;2023-12-07T12:57:10;100581.44;;;7.46;100.00
60355;BME280;46198;51.464;-0.066;2023-12-07T12:59:39;100569.00;;;7.52;100.00
60355;BME280;46198;51.464;-0.066;2023-12-07T13:05:47;100547.16;;;7.40;100.00